sensor_id;sensor_type;location;lat;lon;timestamp;pressure;altitude;pressure_sealevel;temperature;humidity
39897;BME280;25567;48.276;14.242;2022-11-14T00:00:06;98863.44;;;6.92;94.28
39897;BME280;25567;48.276;14.242;2022-11-14T00:02:34;98858.78;;;6.94;94.69
39897;BME280;25567;48.276;14.242;2022-11-14T00:05:00;98855.16;;;6.95;94.49
39897;BME280;25567;48.276;14.242;2022-11-14T00:07:29;98861.44;;;6.94;94.11
39897;BME280;25567;48.276;14.242;2022-11-14T00:09:56;98862.06;;;6.96;93.75
39897;BME280;25567;48.276;14.242;2022-11-14T00:12:22;98861.66;;;6.99;94.02
39897;BME280;25567;48.276;14.242;2022-11-14T00:14:49;98857.19;;;7.00;93.79
39897;BME280;25567;48.276;14.242;2022-11-14T00:17:17;98865.75;;;7.02;93.35
39897;BME280;25567;48.276;14.242;2022-11-14T00:19:44;98862.28;;;7.01;93.24
39897;BME280;25567;48.276;14.242;2022-11-14T00:22:11;98859.84;;;7.00;93.42
39897;BME280;25567;48.276;14.242;2022-11-14T00:24:37;98851.53;;;6.96;94.17
39897;BME280;25567;48.276;14.242;2022-11-14T00:27:04;98863.88;;;6.96;93.68
39897;BME280;25567;48.276;14.242;2022-11-14T00:29:30;98867.53;;;7.01;93.17
39897;BME280;25567;48.276;14.242;2022-11-14T00:31:57;98859.03;;;6.99;93.26
39897;BME280;25567;48.276;14.242;2022-11-14T00:34:24;98857.78;;;6.95;93.68
39897;BME280;25567;48.276;14.242;2022-11-14T00:36:50;98853.94;;;6.91;94.12
39897;BME280;25567;48.276;14.242;2022-11-14T00:39:17;98833.19;;;6.88;94.50
39897;BME280;25567;48.276;14.242;2022-11-14T00:41:44;98845.38;;;6.89;93.70
39897;BME280;25567;48.276;14.242;2022-11-14T00:44:10;98842.75;;;6.89;93.43
39897;BME280;25567;48.276;14.242;2022-11-14T00:46:37;98837.88;;;6.86;93.68
39897;BME280;25567;48.276;14.242;2022-11-14T00:49:04;98842.31;;;6.85;93.71
39897;BME280;25567;48.276;14.242;2022-11-14T00:51:30;98834.59;;;6.84;94.19
39897;BME280;25567;48.276;14.242;2022-11-14T00:54:02;98843.72;;;6.81;93.69
39897;BME280;25567;48.276;14.242;2022-11-14T00:56:28;98839.47;;;6.80;94.00
39897;BME280;25567;48.276;14.242;2022-11-14T00:58:55;98851.66;;;6.88;92.80
39897;BME280;25567;48.276;14.242;2022-11-14T01:01:21;98857.31;;;6.85;93.37
39897;BME280;25567;48.276;14.242;2022-11-14T01:03:49;98857.13;;;6.87;92.98
39897;BME280;25567;48.276;14.242;2022-11-14T01:06:17;98850.81;;;6.81;93.83
39897;BME280;25567;48.276;14.242;2022-11-14T01:08:48;98849.38;;;6.78;94.84
39897;BME280;25567;48.276;14.242;2022-11-14T01:11:18;98847.94;;;6.76;95.01
39897;BME280;25567;48.276;14.242;2022-11-14T01:13:45;98841.44;;;6.72;95.15
39897;BME280;25567;48.276;14.242;2022-11-14T01:16:12;98831.28;;;6.68;96.47
39897;BME280;25567;48.276;14.242;2022-11-14T01:18:39;98831.28;;;6.68;96.18
39897;BME280;25567;48.276;14.242;2022-11-14T01:21:11;98826.63;;;6.71;95.95
39897;BME280;25567;48.276;14.242;2022-11-14T01:23:39;98829.66;;;6.67;96.28
39897;BME280;25567;48.276;14.242;2022-11-14T01:26:08;98830.00;;;6.64;96.38
39897;BME280;25567;48.276;14.242;2022-11-14T01:28:36;98834.91;;;6.67;95.56
39897;BME280;25567;48.276;14.242;2022-11-14T01:31:17;98830.22;;;6.63;95.64
39897;BME280;25567;48.276;14.242;2022-11-14T01:33:47;98826.78;;;6.62;96.03
39897;BME280;25567;48.276;14.242;2022-11-14T01:36:14;98821.06;;;6.59;96.02
39897;BME280;25567;48.276;14.242;2022-11-14T01:38:41;98805.47;;;6.57;96.04
39897;BME280;25567;48.276;14.242;2022-11-14T01:41:09;98798.75;;;6.55;96.65
39897;BME280;25567;48.276;14.242;2022-11-14T01:43:38;98797.50;;;6.50;97.07
39897;BME280;25567;48.276;14.242;2022-11-14T01:53:31;98796.31;;;6.53;97.28
39897;BME280;25567;48.276;14.242;2022-11-14T01:56:02;98791.25;;;6.51;97.88
39897;BME280;25567;48.276;14.242;2022-11-14T01:58:30;98793.25;;;6.49;97.57
39897;BME280;25567;48.276;14.242;2022-11-14T02:00:59;98788.41;;;6.53;97.20
39897;BME280;25567;48.276;14.242;2022-11-14T02:03:26;98787.16;;;6.49;97.59
39897;BME280;25567;48.276;14.242;2022-11-14T02:05:54;98779.66;;;6.46;97.98
39897;BME280;25567;48.276;14.242;2022-11-14T02:08:23;98782.06;;;6.41;98.25
39897;BME280;25567;48.276;14.242;2022-11-14T02:10:50;98778.41;;;6.42;98.53
39897;BME280;25567;48.276;14.242;2022-11-14T02:13:17;98771.53;;;6.41;98.67
39897;BME280;25567;48.276;14.242;2022-11-14T02:15:43;98773.53;;;6.39;98.31
39897;BME280;25567;48.276;14.242;2022-11-14T02:18:10;98772.09;;;6.36;98.61
39897;BME280;25567;48.276;14.242;2022-11-14T02:20:38;98769.66;;;6.34;99.06
39897;BME280;25567;48.276;14.242;2022-11-14T02:23:10;98768.44;;;6.37;99.01
39897;BME280;25567;48.276;14.242;2022-11-14T02:25:37;98763.38;;;6.36;99.03
39897;BME280;25567;48.276;14.242;2022-11-14T02:28:06;98765.38;;;6.33;98.96
39897;BME280;25567;48.276;14.242;2022-11-14T02:30:33;98761.31;;;6.31;99.27
39897;BME280;25567;48.276;14.242;2022-11-14T02:33:00;98759.88;;;6.28;99.21
39897;BME280;25567;48.276;14.242;2022-11-14T02:35:41;98757.63;;;6.25;99.57
39897;BME280;25567;48.276;14.242;2022-11-14T02:38:08;98754.34;;;6.23;99.91
39897;BME280;25567;48.276;14.242;2022-11-14T02:40:35;98745.66;;;6.23;99.77
39897;BME280;25567;48.276;14.242;2022-11-14T02:43:01;98749.28;;;6.22;99.91
39897;BME280;25567;48.276;14.242;2022-11-14T02:45:28;98745.03;;;6.21;99.21
39897;BME280;25567;48.276;14.242;2022-11-14T02:47:54;98738.72;;;6.15;99.90
39897;BME280;25567;48.276;14.242;2022-11-14T02:50:21;98748.66;;;6.13;100.00
39897;BME280;25567;48.276;14.242;2022-11-14T02:52:48;98740.09;;;6.11;100.00
39897;BME280;25567;48.276;14.242;2022-11-14T02:55:14;98738.06;;;6.06;100.00
39897;BME280;25567;48.276;14.242;2022-11-14T02:57:41;98739.03;;;5.98;100.00
39897;BME280;25567;48.276;14.242;2022-11-14T03:00:08;98747.53;;;6.00;100.00
39897;BME280;25567;48.276;14.242;2022-11-14T03:02:40;98750.53;;;5.97;100.00
39897;BME280;25567;48.276;14.242;2022-11-14T03:05:07;98750.91;;;5.94;100.00
39897;BME280;25567;48.276;14.242;2022-11-14T03:07:34;98747.44;;;5.94;100.00
39897;BME280;25567;48.276;14.242;2022-11-14T03:10:01;98749.28;;;5.93;100.00
39897;BME280;25567;48.276;14.242;2022-11-14T03:12:28;98738.09;;;5.91;100.00
39897;BME280;25567;48.276;14.242;2022-11-14T03:14:54;98745.81;;;5.93;100.00
39897;BME280;25567;48.276;14.242;2022-11-14T03:17:21;98738.75;;;5.93;100.00
39897;BME280;25567;48.276;14.242;2022-11-14T03:19:50;98750.28;;;5.92;100.00
39897;BME280;25567;48.276;14.242;2022-11-14T03:22:16;98748.44;;;5.93;100.00
39897;BME280;25567;48.276;14.242;2022-11-14T03:24:43;98743.19;;;5.93;100.00
39897;BME280;25567;48.276;14.242;2022-11-14T03:27:09;98736.00;;;6.01;100.00
39897;BME280;25567;48.276;14.242;2022-11-14T03:29:36;98745.91;;;5.99;100.00
39897;BME280;25567;48.276;14.242;2022-11-14T03:32:03;98740.97;;;5.96;100.00
39897;BME280;25567;48.276;14.242;2022-11-14T03:34:29;98734.28;;;5.94;100.00
39897;BME280;25567;48.276;14.242;2022-11-14T03:36:56;98746.00;;;5.91;100.00
39897;BME280;25567;48.276;14.242;2022-11-14T03:39:23;98731.84;;;5.92;100.00
39897;BME280;25567;48.276;14.242;2022-11-14T03:41:49;98732.28;;;5.96;100.00
39897;BME280;25567;48.276;14.242;2022-11-14T03:44:16;98735.72;;;5.96;100.00
39897;BME280;25567;48.276;14.242;2022-11-14T03:46:43;98732.47;;;5.94;100.00
39897;BME280;25567;48.276;14.242;2022-11-14T03:49:09;98722.94;;;5.93;100.00
39897;BME280;25567;48.276;14.242;2022-11-14T03:51:36;98721.31;;;5.92;100.00
39897;BME280;25567;48.276;14.242;2022-11-14T03:54:03;98720.88;;;5.89;100.00
39897;BME280;25567;48.276;14.242;2022-11-14T03:56:29;98708.75;;;5.88;100.00
39897;BME280;25567;48.276;14.242;2022-11-14T03:58:56;98708.31;;;5.84;100.00
39897;BME280;25567;48.276;14.242;2022-11-14T04:01:23;98707.84;;;5.80;100.00
39897;BME280;25567;48.276;14.242;2022-11-14T04:03:49;98707.41;;;5.77;100.00
39897;BME280;25567;48.276;14.242;2022-11-14T04:06:16;98701.75;;;5.73;100.00
39897;BME280;25567;48.276;14.242;2022-11-14T04:08:43;98694.66;;;5.74;100.00
39897;BME280;25567;48.276;14.242;2022-11-14T04:11:09;98694.66;;;5.74;100.00
39897;BME280;25567;48.276;14.242;2022-11-14T04:13:36;98696.69;;;5.72;100.00
39897;BME280;25567;48.276;14.242;2022-11-14T04:16:03;98685.72;;;5.68;100.00
39897;BME280;25567;48.276;14.242;2022-11-14T04:18:30;98681.63;;;5.65;100.00
39897;BME280;25567;48.276;14.242;2022-11-14T04:20:57;98681.19;;;5.62;100.00
39897;BME280;25567;48.276;14.242;2022-11-14T04:23:24;98681.63;;;5.65;100.00
39897;BME280;25567;48.276;14.242;2022-11-14T04:25:50;98689.53;;;5.65;100.00
39897;BME280;25567;48.276;14.242;2022-11-14T04:28:17;98688.09;;;5.63;100.00
39897;BME280;25567;48.276;14.242;2022-11-14T04:30:43;98680.41;;;5.61;100.00
39897;BME280;25567;48.276;14.242;2022-11-14T04:33:10;98680.16;;;5.56;100.00
39897;BME280;25567;48.276;14.242;2022-11-14T04:35:37;98680.53;;;5.53;100.00
39897;BME280;25567;48.276;14.242;2022-11-14T04:38:04;98683.72;;;5.48;100.00
39897;BME280;25567;48.276;14.242;2022-11-14T04:40:30;98695.44;;;5.46;100.00
39897;BME280;25567;48.276;14.242;2022-11-14T04:42:57;98693.19;;;5.43;100.00
39897;BME280;25567;48.276;14.242;2022-11-14T04:45:24;98694.56;;;5.39;100.00
39897;BME280;25567;48.276;14.242;2022-11-14T04:47:50;98702.81;;;5.35;100.00
39897;BME280;25567;48.276;14.242;2022-11-14T04:50:17;98696.56;;;5.37;100.00
39897;BME280;25567;48.276;14.242;2022-11-14T04:52:44;98694.56;;;5.39;100.00
39897;BME280;25567;48.276;14.242;2022-11-14T04:55:13;98706.72;;;5.40;100.00
39897;BME280;25567;48.276;14.242;2022-11-14T04:57:40;98710.78;;;5.42;100.00
39897;BME280;25567;48.276;14.242;2022-11-14T05:00:07;98710.78;;;5.42;100.00
39897;BME280;25567;48.276;14.242;2022-11-14T05:02:34;98700.25;;;5.42;100.00
39897;BME280;25567;48.276;14.242;2022-11-14T05:05:00;98712.16;;;5.38;100.00
39897;BME280;25567;48.276;14.242;2022-11-14T05:07:27;98702.03;;;5.35;100.00
39897;BME280;25567;48.276;14.242;2022-11-14T05:09:54;98693.94;;;5.37;100.00
39897;BME280;25567;48.276;14.242;2022-11-14T05:12:20;98703.47;;;5.38;100.00
39897;BME280;25567;48.276;14.242;2022-11-14T05:14:47;98689.69;;;5.35;100.00
39897;BME280;25567;48.276;14.242;2022-11-14T05:17:14;98695.97;;;5.34;100.00
39897;BME280;25567;48.276;14.242;2022-11-14T05:19:40;98685.38;;;5.28;100.00
39897;BME280;25567;48.276;14.242;2022-11-14T05:22:10;98698.94;;;5.31;100.00
39897;BME280;25567;48.276;14.242;2022-11-14T05:24:37;98714.13;;;5.29;100.00
39897;BME280;25567;48.276;14.242;2022-11-14T05:27:03;98721.56;;;5.26;100.00
39897;BME280;25567;48.276;14.242;2022-11-14T05:29:30;98708.97;;;5.21;100.00
39897;BME280;25567;48.276;14.242;2022-11-14T05:31:57;98704.72;;;5.20;100.00
39897;BME280;25567;48.276;14.242;2022-11-14T05:34:23;98702.09;;;5.20;100.00
39897;BME280;25567;48.276;14.242;2022-11-14T05:36:50;98694.81;;;5.22;100.00
39897;BME280;25567;48.276;14.242;2022-11-14T05:39:17;98680.47;;;5.25;100.00
39897;BME280;25567;48.276;14.242;2022-11-14T05:41:45;98676.28;;;5.30;100.00
39897;BME280;25567;48.276;14.242;2022-11-14T05:44:13;98670.66;;;5.33;100.00
39897;BME280;25567;48.276;14.242;2022-11-14T05:46:40;98676.72;;;5.34;100.00
39897;BME280;25567;48.276;14.242;2022-11-14T05:49:06;98677.97;;;5.38;100.00
39897;BME280;25567;48.276;14.242;2022-11-14T05:51:33;98680.19;;;5.34;100.00
39897;BME280;25567;48.276;14.242;2022-11-14T05:53:59;98683.22;;;5.38;100.00
39897;BME280;25567;48.276;14.242;2022-11-14T05:56:26;98676.56;;;5.42;100.00
39897;BME280;25567;48.276;14.242;2022-11-14T05:58:53;98666.44;;;5.39;100.00
39897;BME280;25567;48.276;14.242;2022-11-14T06:01:19;98672.09;;;5.36;100.00
39897;BME280;25567;48.276;14.242;2022-11-14T06:03:47;98682.44;;;5.38;100.00
39897;BME280;25567;48.276;14.242;2022-11-14T06:06:16;98678.78;;;5.39;100.00
39897;BME280;25567;48.276;14.242;2022-11-14T06:08:43;98677.16;;;5.38;100.00
39897;BME280;25567;48.276;14.242;2022-11-14T06:11:14;98682.63;;;5.36;100.00
39897;BME280;25567;48.276;14.242;2022-11-14T06:13:42;98669.03;;;5.32;100.00
39897;BME280;25567;48.276;14.242;2022-11-14T06:16:11;98665.81;;;5.37;100.00
39897;BME280;25567;48.276;14.242;2022-11-14T06:18:39;98652.09;;;5.42;100.00
39897;BME280;25567;48.276;14.242;2022-11-14T06:21:21;98658.22;;;5.49;100.00
39897;BME280;25567;48.276;14.242;2022-11-14T06:23:49;98656.03;;;5.53;100.00
39897;BME280;25567;48.276;14.242;2022-11-14T06:26:22;98659.91;;;5.57;100.00
39897;BME280;25567;48.276;14.242;2022-11-14T06:28:50;98667.00;;;5.56;100.00
39897;BME280;25567;48.276;14.242;2022-11-14T06:31:19;98669.63;;;5.56;100.00
39897;BME280;25567;48.276;14.242;2022-11-14T06:33:46;98673.88;;;5.57;100.00
39897;BME280;25567;48.276;14.242;2022-11-14T06:36:14;98679.16;;;5.57;100.00
39897;BME280;25567;48.276;14.242;2022-11-14T06:38:41;98678.31;;;5.57;100.00
39897;BME280;25567;48.276;14.242;2022-11-14T06:41:10;98690.69;;;5.56;100.00
39897;BME280;25567;48.276;14.242;2022-11-14T06:43:40;98689.69;;;5.57;100.00
39897;BME280;25567;48.276;14.242;2022-11-14T06:46:09;98693.13;;;5.58;100.00
39897;BME280;25567;48.276;14.242;2022-11-14T06:48:37;98698.22;;;5.66;100.00
39897;BME280;25567;48.276;14.242;2022-11-14T06:51:04;98709.19;;;5.70;100.00
39897;BME280;25567;48.276;14.242;2022-11-14T06:53:34;98717.09;;;5.70;100.00
39897;BME280;25567;48.276;14.242;2022-11-14T06:56:16;98712.47;;;5.72;100.00
39897;BME280;25567;48.276;14.242;2022-11-14T06:58:45;98724.41;;;5.74;100.00
39897;BME280;25567;48.276;14.242;2022-11-14T07:01:13;98719.78;;;5.76;100.00
39897;BME280;25567;48.276;14.242;2022-11-14T07:03:41;98728.91;;;5.80;100.00
39897;BME280;25567;48.276;14.242;2022-11-14T07:06:13;98710.94;;;5.84;100.00
39897;BME280;25567;48.276;14.242;2022-11-14T07:08:41;98718.06;;;5.90;100.00
39897;BME280;25567;48.276;14.242;2022-11-14T07:11:11;98714.06;;;5.94;100.00
39897;BME280;25567;48.276;14.242;2022-11-14T07:13:38;98717.97;;;5.98;100.00
39897;BME280;25567;48.276;14.242;2022-11-14T07:16:05;98720.81;;;6.04;100.00
39897;BME280;25567;48.276;14.242;2022-11-14T07:18:32;98725.09;;;6.11;100.00
39897;BME280;25567;48.276;14.242;2022-11-14T07:21:01;98719.28;;;6.16;100.00
39897;BME280;25567;48.276;14.242;2022-11-14T07:23:30;98718.28;;;6.17;100.00
39897;BME280;25567;48.276;14.242;2022-11-14T07:26:01;98721.16;;;6.22;100.00
39897;BME280;25567;48.276;14.242;2022-11-14T07:28:28;98714.84;;;6.23;100.00
39897;BME280;25567;48.276;14.242;2022-11-14T07:30:55;98706.19;;;6.29;100.00
39897;BME280;25567;48.276;14.242;2022-11-14T07:33:22;98702.56;;;6.37;100.00
39897;BME280;25567;48.276;14.242;2022-11-14T07:35:50;98695.75;;;6.56;100.00
39897;BME280;25567;48.276;14.242;2022-11-14T07:38:17;98697.84;;;6.67;100.00
39897;BME280;25567;48.276;14.242;2022-11-14T07:40:52;98694.66;;;6.92;100.00
39897;BME280;25567;48.276;14.242;2022-11-14T07:43:25;98698.78;;;7.08;99.17
39897;BME280;25567;48.276;14.242;2022-11-14T07:45:52;98700.84;;;7.33;97.74
39897;BME280;25567;48.276;14.242;2022-11-14T07:48:19;98696.78;;;7.50;96.61
39897;BME280;25567;48.276;14.242;2022-11-14T07:50:47;98709.81;;;7.65;95.49
39897;BME280;25567;48.276;14.242;2022-11-14T07:53:13;98711.81;;;7.90;94.16
39897;BME280;25567;48.276;14.242;2022-11-14T07:55:42;98708.97;;;8.05;92.05
39897;BME280;25567;48.276;14.242;2022-11-14T07:58:08;98702.44;;;8.28;91.29
39897;BME280;25567;48.276;14.242;2022-11-14T08:00:35;98705.63;;;8.37;89.84
39897;BME280;25567;48.276;14.242;2022-11-14T08:03:02;98703.19;;;8.48;89.95
39897;BME280;25567;48.276;14.242;2022-11-14T08:05:28;98702.72;;;8.72;88.36
39897;BME280;25567;48.276;14.242;2022-11-14T08:07:55;98698.00;;;8.74;88.87
39897;BME280;25567;48.276;14.242;2022-11-14T08:10:21;98698.22;;;8.72;88.55
39897;BME280;25567;48.276;14.242;2022-11-14T08:12:57;98701.41;;;8.88;88.14
39897;BME280;25567;48.276;14.242;2022-11-14T08:15:44;98702.31;;;9.07;87.58
39897;BME280;25567;48.276;14.242;2022-11-14T08:18:11;98705.06;;;9.25;86.89
39897;BME280;25567;48.276;14.242;2022-11-14T08:20:37;98697.19;;;9.44;86.24
39897;BME280;25567;48.276;14.242;2022-11-14T08:23:05;98690.16;;;9.31;85.16
39897;BME280;25567;48.276;14.242;2022-11-14T08:25:32;98685.09;;;9.29;85.08
39897;BME280;25567;48.276;14.242;2022-11-14T08:27:59;98672.78;;;9.16;85.86
39897;BME280;25567;48.276;14.242;2022-11-14T08:30:26;98665.47;;;9.12;85.83
39897;BME280;25567;48.276;14.242;2022-11-14T08:32:53;98661.88;;;9.31;85.53
39897;BME280;25567;48.276;14.242;2022-11-14T08:35:21;98668.19;;;9.30;85.41
39897;BME280;25567;48.276;14.242;2022-11-14T08:37:48;98672.78;;;9.42;85.36
39897;BME280;25567;48.276;14.242;2022-11-14T08:40:14;98668.97;;;9.63;83.92
39897;BME280;25567;48.276;14.242;2022-11-14T08:42:41;98666.56;;;9.80;82.65
39897;BME280;25567;48.276;14.242;2022-11-14T08:45:09;98668.19;;;9.81;82.47
39897;BME280;25567;48.276;14.242;2022-11-14T08:47:36;98668.28;;;10.11;80.64
39897;BME280;25567;48.276;14.242;2022-11-14T08:50:03;98663.94;;;10.17;81.41
39897;BME280;25567;48.276;14.242;2022-11-14T08:52:29;98660.28;;;10.18;81.39
39897;BME280;25567;48.276;14.242;2022-11-14T08:54:56;98655.66;;;10.32;80.87
39897;BME280;25567;48.276;14.242;2022-11-14T08:57:26;98654.97;;;10.55;80.45
39897;BME280;25567;48.276;14.242;2022-11-14T08:59:53;98658.50;;;10.49;80.13
39897;BME280;25567;48.276;14.242;2022-11-14T09:02:20;98653.88;;;10.44;80.17
39897;BME280;25567;48.276;14.242;2022-11-14T09:04:47;98644.97;;;10.57;79.65
39897;BME280;25567;48.276;14.242;2022-11-14T09:07:14;98644.66;;;10.96;79.52
39897;BME280;25567;48.276;14.242;2022-11-14T09:09:40;98650.34;;;11.11;78.70
39897;BME280;25567;48.276;14.242;2022-11-14T09:12:07;98651.50;;;11.04;77.73
39897;BME280;25567;48.276;14.242;2022-11-14T09:14:34;98657.00;;;11.02;77.40
39897;BME280;25567;48.276;14.242;2022-11-14T09:17:00;98655.28;;;10.96;77.32
39897;BME280;25567;48.276;14.242;2022-11-14T09:19:32;98651.69;;;11.02;77.71
39897;BME280;25567;48.276;14.242;2022-11-14T09:21:59;98649.44;;;11.17;77.44
39897;BME280;25567;48.276;14.242;2022-11-14T09:24:29;98661.31;;;11.15;76.19
39897;BME280;25567;48.276;14.242;2022-11-14T09:26:55;98647.84;;;11.28;76.82
39897;BME280;25567;48.276;14.242;2022-11-14T09:29:22;98648.34;;;11.49;76.27
39897;BME280;25567;48.276;14.242;2022-11-14T09:31:50;98636.25;;;12.00;74.61
39897;BME280;25567;48.276;14.242;2022-11-14T09:34:17;98628.72;;;12.50;72.78
39897;BME280;25567;48.276;14.242;2022-11-14T09:36:44;98632.28;;;12.84;71.84
39897;BME280;25567;48.276;14.242;2022-11-14T09:39:12;98623.31;;;13.20;69.49
39897;BME280;25567;48.276;14.242;2022-11-14T09:41:57;98614.94;;;13.45;68.73
39897;BME280;25567;48.276;14.242;2022-11-14T09:47:10;98607.41;;;14.42;66.71
39897;BME280;25567;48.276;14.242;2022-11-14T09:49:48;98598.16;;;14.72;64.91
39897;BME280;25567;48.276;14.242;2022-11-14T09:52:36;98596.25;;;14.67;63.12
39897;BME280;25567;48.276;14.242;2022-11-14T09:57:46;98590.28;;;14.88;63.07
39897;BME280;25567;48.276;14.242;2022-11-14T10:02:45;98601.59;;;14.95;62.13
39897;BME280;25567;48.276;14.242;2022-11-14T10:05:36;98599.81;;;15.43;61.11
39897;BME280;25567;48.276;14.242;2022-11-14T10:08:25;98599.63;;;15.55;60.08
39897;BME280;25567;48.276;14.242;2022-11-14T10:11:03;98590.09;;;15.70;59.79
39897;BME280;25567;48.276;14.242;2022-11-14T10:27:17;98558.41;;;16.93;56.25
39897;BME280;25567;48.276;14.242;2022-11-14T10:29:52;98560.19;;;16.36;57.17
39897;BME280;25567;48.276;14.242;2022-11-14T10:35:22;98570.38;;;15.38;59.04
39897;BME280;25567;48.276;14.242;2022-11-14T10:40:36;98548.09;;;15.22;60.54
39897;BME280;25567;48.276;14.242;2022-11-14T10:43:25;98536.47;;;15.39;60.95
39897;BME280;25567;48.276;14.242;2022-11-14T10:46:00;98543.81;;;15.21;61.94
39897;BME280;25567;48.276;14.242;2022-11-14T10:48:38;98548.97;;;14.95;62.94
39897;BME280;25567;48.276;14.242;2022-11-14T10:54:01;98540.88;;;14.58;63.92
39897;BME280;25567;48.276;14.242;2022-11-14T10:56:31;98538.31;;;14.41;63.63
39897;BME280;25567;48.276;14.242;2022-11-14T10:58:58;98528.22;;;14.48;64.68
39897;BME280;25567;48.276;14.242;2022-11-14T11:04:27;98524.06;;;14.08;67.02
39897;BME280;25567;48.276;14.242;2022-11-14T11:06:56;98530.09;;;13.98;66.48
39897;BME280;25567;48.276;14.242;2022-11-14T11:09:25;98528.59;;;14.07;66.69
39897;BME280;25567;48.276;14.242;2022-11-14T11:12:18;98529.78;;;13.94;67.43
39897;BME280;25567;48.276;14.242;2022-11-14T11:14:47;98521.66;;;14.06;68.52
39897;BME280;25567;48.276;14.242;2022-11-14T11:17:17;98521.09;;;14.04;67.65
39897;BME280;25567;48.276;14.242;2022-11-14T11:19:46;98520.84;;;14.06;67.00
39897;BME280;25567;48.276;14.242;2022-11-14T11:25:21;98522.13;;;14.03;68.87
39897;BME280;25567;48.276;14.242;2022-11-14T11:28:04;98512.22;;;13.98;68.84
39897;BME280;25567;48.276;14.242;2022-11-14T11:30:32;98511.72;;;14.24;65.64
39897;BME280;25567;48.276;14.242;2022-11-14T11:35:42;98507.75;;;14.04;66.38
39897;BME280;25567;48.276;14.242;2022-11-14T11:38:10;98497.28;;;13.97;66.15
39897;BME280;25567;48.276;14.242;2022-11-14T11:40:44;98492.91;;;13.86;67.21
39897;BME280;25567;48.276;14.242;2022-11-14T11:43:33;98485.50;;;13.71;67.01
39897;BME280;25567;48.276;14.242;2022-11-14T11:46:14;98476.09;;;13.63;68.84
39897;BME280;25567;48.276;14.242;2022-11-14T11:48:45;98475.03;;;13.87;66.06
39897;BME280;25567;48.276;14.242;2022-11-14T11:51:17;98471.63;;;13.91;67.26
39897;BME280;25567;48.276;14.242;2022-11-14T11:53:54;98475.09;;;13.92;67.95
39897;BME280;25567;48.276;14.242;2022-11-14T11:56:26;98473.97;;;14.10;66.48
39897;BME280;25567;48.276;14.242;2022-11-14T11:59:22;98476.47;;;14.22;66.79
39897;BME280;25567;48.276;14.242;2022-11-14T12:01:51;98483.81;;;14.37;65.82
39897;BME280;25567;48.276;14.242;2022-11-14T12:04:17;98475.81;;;14.37;65.89
39897;BME280;25567;48.276;14.242;2022-11-14T12:06:52;98485.78;;;14.46;65.69
39897;BME280;25567;48.276;14.242;2022-11-14T12:09:26;98485.41;;;14.32;64.95
39897;BME280;25567;48.276;14.242;2022-11-14T12:12:38;98477.88;;;14.29;65.61
39897;BME280;25567;48.276;14.242;2022-11-14T12:17:55;98468.72;;;14.20;66.23
39897;BME280;25567;48.276;14.242;2022-11-14T12:25:39;98469.13;;;14.34;65.17
39897;BME280;25567;48.276;14.242;2022-11-14T12:28:18;98462.47;;;14.37;64.60
39897;BME280;25567;48.276;14.242;2022-11-14T12:30:52;98466.72;;;14.32;64.97
39897;BME280;25567;48.276;14.242;2022-11-14T12:33:27;98456.31;;;14.36;63.97
39897;BME280;25567;48.276;14.242;2022-11-14T12:35:58;98451.75;;;14.31;64.93
39897;BME280;25567;48.276;14.242;2022-11-14T12:38:31;98449.63;;;14.33;65.00
39897;BME280;25567;48.276;14.242;2022-11-14T12:41:01;98446.13;;;14.28;66.15
39897;BME280;25567;48.276;14.242;2022-11-14T12:46:04;98439.88;;;14.49;64.54
39897;BME280;25567;48.276;14.242;2022-11-14T12:48:36;98445.44;;;14.70;63.81
39897;BME280;25567;48.276;14.242;2022-11-14T12:53:55;98458.03;;;15.17;61.39
39897;BME280;25567;48.276;14.242;2022-11-14T12:56:45;98450.31;;;15.26;60.61
39897;BME280;25567;48.276;14.242;2022-11-14T12:59:31;98447.16;;;15.29;60.95
39897;BME280;25567;48.276;14.242;2022-11-14T13:02:10;98444.13;;;15.15;61.29
39897;BME280;25567;48.276;14.242;2022-11-14T13:05:03;98446.03;;;15.20;60.32
39897;BME280;25567;48.276;14.242;2022-11-14T13:10:29;98442.00;;;15.17;60.98
39897;BME280;25567;48.276;14.242;2022-11-14T13:13:09;98440.13;;;15.18;60.92
39897;BME280;25567;48.276;14.242;2022-11-14T13:15:54;98435.66;;;15.29;60.68
39897;BME280;25567;48.276;14.242;2022-11-14T13:21:31;98447.47;;;15.43;61.95
39897;BME280;25567;48.276;14.242;2022-11-14T13:24:15;98434.94;;;15.49;60.59
39897;BME280;25567;48.276;14.242;2022-11-14T13:26:49;98436.84;;;15.54;60.53
39897;BME280;25567;48.276;14.242;2022-11-14T13:29:47;98438.22;;;15.61;59.97
39897;BME280;25567;48.276;14.242;2022-11-14T13:35:38;98440.31;;;15.54;60.30
39897;BME280;25567;48.276;14.242;2022-11-14T13:49:42;98426.63;;;16.65;57.02
39897;BME280;25567;48.276;14.242;2022-11-14T13:52:15;98416.44;;;16.83;57.18
39897;BME280;25567;48.276;14.242;2022-11-14T13:54:45;98433.28;;;17.14;54.98
39897;BME280;25567;48.276;14.242;2022-11-14T13:57:23;98434.88;;;17.10;56.42
39897;BME280;25567;48.276;14.242;2022-11-14T14:00:10;98434.78;;;17.41;55.69
39897;BME280;25567;48.276;14.242;2022-11-14T14:03:06;98427.31;;;17.38;55.37
39897;BME280;25567;48.276;14.242;2022-11-14T14:11:21;98414.84;;;16.30;58.33
39897;BME280;25567;48.276;14.242;2022-11-14T14:14:04;98413.72;;;15.95;58.96
39897;BME280;25567;48.276;14.242;2022-11-14T14:16:48;98406.81;;;16.30;58.08
39897;BME280;25567;48.276;14.242;2022-11-14T14:19:30;98406.28;;;17.61;54.12
39897;BME280;25567;48.276;14.242;2022-11-14T14:22:12;98403.56;;;18.56;51.77
39897;BME280;25567;48.276;14.242;2022-11-14T14:24:50;98399.25;;;19.13;50.64
39897;BME280;25567;48.276;14.242;2022-11-14T14:27:45;98397.41;;;19.76;49.66
39897;BME280;25567;48.276;14.242;2022-11-14T14:30:16;98395.13;;;19.64;49.76
39897;BME280;25567;48.276;14.242;2022-11-14T14:33:07;98397.22;;;18.71;51.32